createdAt,value
2019-01-12T00:00:50.908Z,98.10
2019-01-12T00:03:13.196Z,98.00
2019-01-12T00:05:35.445Z,98.20
2019-01-12T00:07:57.766Z,98.40
2019-01-12T00:10:20.003Z,98.30
2019-01-12T00:12:42.235Z,98.50
2019-01-12T00:15:04.619Z,98.50
2019-01-12T00:17:26.876Z,98.40
2019-01-12T00:19:49.146Z,98.30
2019-01-12T00:22:11.415Z,98.30
2019-01-12T00:24:33.648Z,98.30
2019-01-12T00:26:55.891Z,98.20
2019-01-12T00:29:18.105Z,98.10
2019-01-12T00:31:40.340Z,98.00
2019-01-12T00:34:02.656Z,98.10
2019-01-12T00:36:24.931Z,98.20
2019-01-12T00:38:47.151Z,98.30
2019-01-12T00:41:09.387Z,98.40
2019-01-12T00:43:31.632Z,98.40
2019-01-12T00:45:53.875Z,98.40
2019-01-12T00:48:16.155Z,98.40
2019-01-12T00:50:38.406Z,98.40
2019-01-12T00:53:00.661Z,98.50
2019-01-12T00:55:22.959Z,98.20
2019-01-12T00:57:45.210Z,98.40
2019-01-12T01:00:10.591Z,98.50
2019-01-12T01:02:32.821Z,98.70
2019-01-12T01:04:55.107Z,98.40
2019-01-12T01:07:17.381Z,98.50
2019-01-12T01:09:39.635Z,98.60
2019-01-12T01:12:01.871Z,98.40
2019-01-12T01:14:24.116Z,98.50
2019-01-12T01:16:46.379Z,98.60
2019-01-12T01:19:08.627Z,98.60
2019-01-12T01:21:30.860Z,98.40
2019-01-12T01:23:53.099Z,98.50
2019-01-12T01:26:15.360Z,98.50
2019-01-12T01:28:37.598Z,98.70
2019-01-12T01:30:59.836Z,98.60
2019-01-12T01:33:27.869Z,98.60
2019-01-12T01:35:44.401Z,98.50
2019-01-12T01:38:06.655Z,98.50
2019-01-12T01:40:28.880Z,98.70
2019-01-12T01:42:51.096Z,98.60
2019-01-12T01:45:14.019Z,98.80
2019-01-12T01:47:36.268Z,98.70
2019-01-12T01:49:58.539Z,98.80
2019-01-12T01:52:20.772Z,98.80
2019-01-12T01:54:43.019Z,98.90
2019-01-12T01:57:05.252Z,99.00
2019-01-12T01:59:27.476Z,98.90
2019-01-12T02:01:49.687Z,98.70
2019-01-12T02:04:11.898Z,98.70
2019-01-12T02:06:34.171Z,98.70
2019-01-12T02:08:56.379Z,98.90
2019-01-12T02:11:18.587Z,98.80
2019-01-12T02:13:40.818Z,98.80
2019-01-12T02:16:03.126Z,98.70
2019-01-12T02:18:25.365Z,98.70
2019-01-12T02:20:47.599Z,98.70
2019-01-12T02:23:09.843Z,98.60
2019-01-12T02:25:32.083Z,98.50
2019-01-12T02:27:54.305Z,98.60
2019-01-12T02:30:21.663Z,98.40
2019-01-12T02:32:43.956Z,98.50
2019-01-12T02:35:06.250Z,98.50
2019-01-12T02:37:28.493Z,98.60
2019-01-12T02:39:50.740Z,98.60
2019-01-12T02:42:12.948Z,98.50
2019-01-12T02:44:35.234Z,98.40
2019-01-12T02:46:57.455Z,98.60
2019-01-12T02:49:19.773Z,98.50
2019-01-12T02:51:42.011Z,98.50
2019-01-12T02:54:04.267Z,98.60
2019-01-12T02:56:26.544Z,98.60
2019-01-12T02:58:48.838Z,98.60
2019-01-12T03:01:11.127Z,98.50
2019-01-12T03:03:33.362Z,98.30
2019-01-12T03:05:55.579Z,98.40
2019-01-12T03:08:17.828Z,98.50
2019-01-12T03:10:40.052Z,98.30
2019-01-12T03:13:02.358Z,98.40
2019-01-12T03:15:24.634Z,98.60
2019-01-12T03:17:46.950Z,98.60
2019-01-12T03:20:10.944Z,98.40
2019-01-12T03:22:33.176Z,98.50
2019-01-12T03:24:55.395Z,98.60
2019-01-12T03:27:17.601Z,98.70
2019-01-12T03:29:39.868Z,98.60
2019-01-12T03:32:02.077Z,98.60
2019-01-12T03:34:24.349Z,98.60
2019-01-12T03:36:46.596Z,98.60
2019-01-12T03:39:08.855Z,98.70
2019-01-12T03:41:31.120Z,98.60
2019-01-12T03:43:53.379Z,98.70
2019-01-12T03:46:15.672Z,98.60
2019-01-12T03:48:37.956Z,98.70
2019-01-12T03:51:00.207Z,98.80
2019-01-12T03:53:22.480Z,98.70
2019-01-12T03:55:44.735Z,98.70
2019-01-12T03:58:07.039Z,98.60
2019-01-12T04:00:29.335Z,98.60
2019-01-12T04:02:51.644Z,98.70
2019-01-12T04:05:13.923Z,98.20
2019-01-12T04:07:36.157Z,98.40
2019-01-12T04:09:58.437Z,98.40
2019-01-12T04:12:20.703Z,98.50
2019-01-12T04:14:43.006Z,98.50
2019-01-12T04:17:05.257Z,98.50
2019-01-12T04:19:27.468Z,98.60
2019-01-12T04:21:49.720Z,98.60
2019-01-12T04:24:11.936Z,98.50
2019-01-12T04:26:34.187Z,98.50
2019-01-12T04:28:56.485Z,98.50
2019-01-12T04:31:18.734Z,98.50
2019-01-12T04:33:40.965Z,98.70
2019-01-12T04:36:03.276Z,98.80
2019-01-12T04:38:25.539Z,98.70
2019-01-12T04:40:47.780Z,98.80
2019-01-12T04:43:10.044Z,98.80
2019-01-12T04:45:32.360Z,98.70
2019-01-12T04:47:54.629Z,98.80
2019-01-12T04:50:16.927Z,98.80
2019-01-12T04:52:39.157Z,98.70
2019-01-12T04:55:01.367Z,98.70
2019-01-12T04:57:23.620Z,98.80
2019-01-12T04:59:45.864Z,98.80
2019-01-12T05:02:08.198Z,99.10
2019-01-12T05:04:30.487Z,98.70
2019-01-12T05:06:52.752Z,98.80
2019-01-12T05:09:15.006Z,98.70
2019-01-12T05:11:37.255Z,98.80
2019-01-12T05:13:59.562Z,98.80
2019-01-12T05:16:21.812Z,98.90
2019-01-12T05:18:44.053Z,99.10
2019-01-12T05:21:06.305Z,99.00
2019-01-12T05:23:28.567Z,99.00
2019-01-12T05:25:50.813Z,98.80
2019-01-12T05:28:13.028Z,98.60
2019-01-12T05:30:35.325Z,98.70
2019-01-12T05:32:57.619Z,98.80
2019-01-12T05:35:19.851Z,98.90
2019-01-12T05:37:42.092Z,99.00
2019-01-12T05:40:04.736Z,99.00
2019-01-12T05:42:26.984Z,99.10
2019-01-12T05:44:49.254Z,99.30
2019-01-12T05:47:11.554Z,99.20
2019-01-12T05:49:33.788Z,99.10
2019-01-12T05:51:56.035Z,99.30
2019-01-12T05:54:18.270Z,99.40
2019-01-12T05:56:40.493Z,99.40
2019-01-12T05:59:02.791Z,99.30
2019-01-12T06:01:25.049Z,99.30
2019-01-12T06:03:47.295Z,99.40
2019-01-12T06:06:09.548Z,99.50
2019-01-12T06:08:31.796Z,99.60
2019-01-12T06:10:54.084Z,99.60
2019-01-12T06:13:16.291Z,99.60
2019-01-12T06:15:38.550Z,99.70
2019-01-12T06:18:00.771Z,99.80
2019-01-12T06:20:23.031Z,99.90
2019-01-12T06:22:45.295Z,99.90
2019-01-12T06:25:07.628Z,99.90
2019-01-12T06:27:29.875Z,99.90
2019-01-12T06:29:52.083Z,99.90
2019-01-12T06:32:14.350Z,99.90
2019-01-12T06:34:36.602Z,99.90
2019-01-12T06:36:58.824Z,99.90
2019-01-12T06:39:21.068Z,99.90
2019-01-12T06:41:43.327Z,99.90
2019-01-12T06:44:05.588Z,99.90
2019-01-12T06:46:27.804Z,99.90
2019-01-12T06:48:50.058Z,99.90
2019-01-12T06:51:12.287Z,99.90
2019-01-12T06:53:34.526Z,99.90
2019-01-12T06:55:56.775Z,99.90
2019-01-12T06:58:18.991Z,99.90
2019-01-12T07:00:41.244Z,99.90
2019-01-12T07:03:03.561Z,99.90
2019-01-12T07:05:25.798Z,99.90
2019-01-12T07:07:48.034Z,99.90
2019-01-12T07:10:10.572Z,99.90
2019-01-12T07:12:32.811Z,99.90
2019-01-12T07:14:55.072Z,99.90
2019-01-12T07:17:17.303Z,99.90
2019-01-12T07:19:39.557Z,99.90
2019-01-12T07:22:01.805Z,99.90
2019-01-12T07:24:24.091Z,99.90
2019-01-12T07:26:46.329Z,99.90
2019-01-12T07:29:08.582Z,99.90
2019-01-12T07:31:30.836Z,99.90
2019-01-12T07:33:53.144Z,99.90
2019-01-12T07:36:15.444Z,99.90
2019-01-12T07:38:37.679Z,99.90
2019-01-12T07:40:59.881Z,99.90
2019-01-12T07:43:22.121Z,99.90
2019-01-12T07:45:44.412Z,99.90
2019-01-12T07:48:06.735Z,99.90
2019-01-12T07:50:28.971Z,99.90
2019-01-12T07:52:51.213Z,99.90
2019-01-12T07:55:13.487Z,99.90
2019-01-12T07:57:35.822Z,99.90
2019-01-12T07:59:58.057Z,99.90
2019-01-12T08:02:20.323Z,99.90
2019-01-12T08:04:42.563Z,99.90
2019-01-12T08:07:04.895Z,99.90
2019-01-12T08:09:27.180Z,99.90
2019-01-12T08:11:49.496Z,99.90
2019-01-12T08:14:11.773Z,99.90
2019-01-12T08:16:34.040Z,99.90
2019-01-12T08:18:56.286Z,99.90
2019-01-12T08:21:18.559Z,99.90
2019-01-12T08:23:40.779Z,99.90
2019-01-12T08:26:03.056Z,99.90
2019-01-12T08:28:25.267Z,99.90
2019-01-12T08:30:47.543Z,99.90
2019-01-12T08:33:09.788Z,99.90
2019-01-12T08:35:32.031Z,99.90
2019-01-12T08:37:54.272Z,99.90
2019-01-12T08:40:16.551Z,99.90
2019-01-12T08:42:38.835Z,99.90
2019-01-12T08:45:01.112Z,99.90
2019-01-12T08:47:23.331Z,99.90
2019-01-12T08:49:45.579Z,99.90
2019-01-12T08:52:07.847Z,99.90
2019-01-12T08:54:30.152Z,99.90
2019-01-12T08:56:52.691Z,99.90
2019-01-12T08:59:15.030Z,99.90
2019-01-12T09:01:37.275Z,99.90
2019-01-12T09:03:59.676Z,99.90
2019-01-12T09:06:21.967Z,99.90
2019-01-12T09:08:44.213Z,99.90
2019-01-12T09:11:06.456Z,99.90
2019-01-12T09:13:28.748Z,99.90
2019-01-12T09:15:51.036Z,99.90
2019-01-12T09:18:13.322Z,99.90
2019-01-12T09:20:35.542Z,99.90
2019-01-12T09:22:57.811Z,99.90
2019-01-12T09:25:20.092Z,99.90
2019-01-12T09:27:42.367Z,99.90
2019-01-12T09:30:06.510Z,99.90
2019-01-12T09:32:28.782Z,99.90
2019-01-12T09:34:51.011Z,99.90
2019-01-12T09:37:13.301Z,99.90
2019-01-12T09:39:35.517Z,99.90
2019-01-12T09:41:57.778Z,99.90
2019-01-12T09:44:20.080Z,99.90
2019-01-12T09:46:42.399Z,99.90
2019-01-12T09:49:04.685Z,99.90
2019-01-12T09:51:27.114Z,99.90
2019-01-12T09:53:49.498Z,99.90
2019-01-12T09:56:11.789Z,99.90
2019-01-12T09:58:34.080Z,99.90
2019-01-12T10:00:56.311Z,99.90
2019-01-12T10:03:18.714Z,99.90
2019-01-12T10:05:40.999Z,99.90
2019-01-12T10:08:03.622Z,99.90
2019-01-12T10:10:25.888Z,99.90
2019-01-12T10:12:48.242Z,99.90
2019-01-12T10:15:10.843Z,99.90
2019-01-12T10:17:33.134Z,99.90
2019-01-12T10:19:55.408Z,99.90
2019-01-12T10:22:18.015Z,99.90
2019-01-12T10:24:39.916Z,99.90
2019-01-12T10:27:02.231Z,99.90
2019-01-12T10:29:24.490Z,99.90
2019-01-12T10:31:46.712Z,99.90
2019-01-12T10:34:08.974Z,99.90
2019-01-12T10:36:31.259Z,99.90
2019-01-12T10:38:53.883Z,99.90
2019-01-12T10:41:16.153Z,99.90
2019-01-12T10:43:38.362Z,99.90
2019-01-12T10:46:00.623Z,99.90
2019-01-12T10:48:22.912Z,99.90
2019-01-12T10:50:45.197Z,99.90
2019-01-12T10:53:07.453Z,99.90
2019-01-12T10:55:29.751Z,99.90
2019-01-12T10:57:52.008Z,99.90
2019-01-12T11:00:17.656Z,99.90
2019-01-12T11:02:39.934Z,99.90
2019-01-12T11:05:02.641Z,99.90
2019-01-12T11:07:24.914Z,99.90
2019-01-12T11:09:47.196Z,99.90
2019-01-12T11:12:09.454Z,99.90
2019-01-12T11:14:31.695Z,99.90
2019-01-12T11:16:53.961Z,99.90
2019-01-12T11:19:16.246Z,99.90
2019-01-12T11:21:38.540Z,99.90
2019-01-12T11:24:00.964Z,99.90
2019-01-12T11:26:23.648Z,99.90
2019-01-12T11:28:45.900Z,99.90
2019-01-12T11:31:08.168Z,99.90
2019-01-12T11:33:30.444Z,99.90
2019-01-12T11:35:52.676Z,99.90
2019-01-12T11:38:14.955Z,99.90
2019-01-12T11:40:37.227Z,99.90
2019-01-12T11:42:59.488Z,99.80
2019-01-12T11:45:21.799Z,99.80
2019-01-12T11:47:44.280Z,99.80
2019-01-12T11:50:09.760Z,99.80
2019-01-12T11:52:32.028Z,99.90
2019-01-12T11:54:54.384Z,99.80
2019-01-12T11:57:19.255Z,99.80
2019-01-12T11:59:38.859Z,99.70
2019-01-12T12:02:01.128Z,99.80
2019-01-12T12:04:23.381Z,99.70
2019-01-12T12:06:45.659Z,99.30
2019-01-12T12:09:08.051Z,99.30
2019-01-12T12:11:30.316Z,99.40
2019-01-12T12:13:52.647Z,99.40
2019-01-12T12:16:14.916Z,99.30
2019-01-12T12:18:37.135Z,99.40
2019-01-12T12:20:59.387Z,99.40
2019-01-12T12:23:21.655Z,99.30
2019-01-12T12:25:43.931Z,99.50
2019-01-12T12:28:06.206Z,99.50
2019-01-12T12:30:29.496Z,99.60
2019-01-12T12:32:51.711Z,99.40
2019-01-12T12:35:14.026Z,99.30
2019-01-12T12:37:36.356Z,99.30
2019-01-12T12:39:58.677Z,99.40
2019-01-12T12:42:20.912Z,99.30
2019-01-12T12:44:43.186Z,99.30
2019-01-12T12:47:05.435Z,99.40
2019-01-12T12:49:27.683Z,99.10
2019-01-12T12:51:49.959Z,99.30
2019-01-12T12:54:13.260Z,99.00
2019-01-12T12:56:36.987Z,99.00
2019-01-12T12:59:04.284Z,99.20
2019-01-12T13:01:28.568Z,99.20
2019-01-12T13:03:54.330Z,99.20
2019-01-12T13:06:21.865Z,99.20
2019-01-12T13:08:48.563Z,99.20
2019-01-12T13:11:09.817Z,99.20
2019-01-12T13:13:34.011Z,99.20
2019-01-12T13:18:29.898Z,99.20
2019-01-12T13:20:53.979Z,99.20
2019-01-12T13:23:16.818Z,99.20
2019-01-12T13:25:40.467Z,99.20
2019-01-12T13:28:06.971Z,99.10
2019-01-12T13:30:32.163Z,99.10
2019-01-12T13:32:56.730Z,99.20
2019-01-12T13:35:20.467Z,99.00
2019-01-12T13:37:42.823Z,99.00
2019-01-12T13:40:07.932Z,99.00
2019-01-12T13:42:31.949Z,99.10
2019-01-12T13:44:55.147Z,99.20
2019-01-12T13:47:20.942Z,99.30
2019-01-12T13:49:42.722Z,99.40
2019-01-12T13:52:06.577Z,99.50
2019-01-12T13:54:30.077Z,99.30
2019-01-12T13:56:53.837Z,99.20
2019-01-12T13:59:16.063Z,99.10
2019-01-12T14:01:40.092Z,99.20
2019-01-12T14:04:03.962Z,99.30
2019-01-12T14:06:28.519Z,99.30
2019-01-12T14:08:52.610Z,99.20
2019-01-12T14:11:15.925Z,99.20
2019-01-12T14:13:39.639Z,99.00
2019-01-12T14:16:03.406Z,99.00
2019-01-12T14:18:26.504Z,99.00
2019-01-12T14:20:49.137Z,98.60
2019-01-12T14:23:13.279Z,98.60
2019-01-12T14:25:37.357Z,98.60
2019-01-12T14:28:01.666Z,98.50
2019-01-12T14:30:27.683Z,98.60
2019-01-12T14:32:51.459Z,98.60
2019-01-12T14:35:16.045Z,98.60
2019-01-12T14:37:38.780Z,98.60
2019-01-12T14:40:02.504Z,98.50
2019-01-12T14:42:24.802Z,98.40
2019-01-12T14:44:48.556Z,97.90
2019-01-12T14:47:11.721Z,98.20
2019-01-12T14:49:34.881Z,98.20
2019-01-12T14:51:58.319Z,98.30
2019-01-12T14:54:21.000Z,98.50
2019-01-12T14:56:44.537Z,98.70
2019-01-12T14:59:08.061Z,98.80
2019-01-12T15:01:31.251Z,98.40
2019-01-12T15:03:53.515Z,98.30
2019-01-12T15:06:17.171Z,98.40
2019-01-12T15:08:40.736Z,98.20
2019-01-12T15:11:04.382Z,98.40
2019-01-12T15:13:27.556Z,98.40
2019-01-12T15:15:50.680Z,98.50
2019-01-12T15:18:13.868Z,98.40
2019-01-12T15:20:36.783Z,99.00
2019-01-12T15:23:00.271Z,98.60
2019-01-12T15:25:25.758Z,98.60
2019-01-12T15:27:50.479Z,98.60
2019-01-12T15:30:19.792Z,98.80
2019-01-12T15:32:43.973Z,98.80
2019-01-12T15:35:08.149Z,99.00
2019-01-12T15:37:32.859Z,99.10
2019-01-12T15:39:55.850Z,99.00
2019-01-12T15:42:22.542Z,99.10
2019-01-12T15:44:46.859Z,99.10
2019-01-12T15:47:11.205Z,99.10
2019-01-12T15:49:35.187Z,99.10
2019-01-12T15:51:58.343Z,99.00
2019-01-12T15:54:21.493Z,98.90
2019-01-12T15:56:45.243Z,99.00
2019-01-12T15:59:08.943Z,99.00
2019-01-12T16:01:32.411Z,98.90
2019-01-12T16:03:55.269Z,99.10
2019-01-12T16:06:18.799Z,99.10
2019-01-12T16:08:46.385Z,99.00
2019-01-12T16:11:14.963Z,98.90
2019-01-12T16:13:42.518Z,98.90
2019-01-12T16:16:08.036Z,98.60
2019-01-12T16:18:32.278Z,98.60
2019-01-12T16:20:56.824Z,98.90
2019-01-12T16:23:20.140Z,98.80
2019-01-12T16:25:43.963Z,99.10
2019-01-12T16:28:07.197Z,98.80
2019-01-12T16:30:39.954Z,98.80
2019-01-12T16:33:02.609Z,98.60
2019-01-12T16:35:26.142Z,98.50
2019-01-12T16:37:52.265Z,98.50
2019-01-12T16:40:17.895Z,98.50
2019-01-12T16:42:42.125Z,98.40
2019-01-12T16:45:08.846Z,98.60
2019-01-12T16:47:33.914Z,98.50
2019-01-12T16:49:59.706Z,98.50
2019-01-12T16:52:23.853Z,98.50
2019-01-12T16:54:52.231Z,98.60
2019-01-12T16:57:20.503Z,98.70
2019-01-12T16:59:46.163Z,98.50
2019-01-12T17:02:10.205Z,98.40
2019-01-12T17:04:36.877Z,98.40
2019-01-12T17:07:02.688Z,98.40
2019-01-12T17:09:28.537Z,98.30
2019-01-12T17:11:52.590Z,98.30
2019-01-12T17:14:23.293Z,97.90
2019-01-12T17:16:50.541Z,98.10
2019-01-12T17:19:18.711Z,98.20
2019-01-12T17:21:49.725Z,98.10
2019-01-12T17:24:14.542Z,98.00
2019-01-12T17:26:45.074Z,98.00
2019-01-12T17:29:17.693Z,97.80
2019-01-12T17:31:42.391Z,98.00
2019-01-12T17:34:07.630Z,97.80
2019-01-12T17:36:32.157Z,98.00
2019-01-12T17:38:55.354Z,97.80
2019-01-12T17:41:19.386Z,97.30
2019-01-12T17:43:43.121Z,97.30
2019-01-12T17:46:08.964Z,97.40
2019-01-12T17:48:36.113Z,97.10
2019-01-12T17:50:58.391Z,96.70
2019-01-12T17:53:20.671Z,96.60
2019-01-12T17:55:42.929Z,96.70
2019-01-12T17:58:05.265Z,97.00
2019-01-12T18:00:37.063Z,96.80
2019-01-12T18:02:59.332Z,96.80
2019-01-12T18:05:21.638Z,96.80
2019-01-12T18:07:43.958Z,97.20
2019-01-12T18:10:07.559Z,97.20
2019-01-12T18:12:29.833Z,97.00
2019-01-12T18:14:52.088Z,97.00
2019-01-12T18:17:14.360Z,96.90
2019-01-12T18:19:36.638Z,97.00
2019-01-12T18:21:58.915Z,96.80
2019-01-12T18:24:21.163Z,96.90
2019-01-12T18:26:43.483Z,96.90
2019-01-12T18:29:05.787Z,97.20
2019-01-12T18:31:28.046Z,97.40
2019-01-12T18:33:50.355Z,97.00
2019-01-12T18:36:12.597Z,97.10
2019-01-12T18:38:35.303Z,97.60
2019-01-12T18:40:59.500Z,97.80
2019-01-12T18:43:22.236Z,97.60
2019-01-12T18:45:45.542Z,98.00
2019-01-12T18:48:10.651Z,98.10
2019-01-12T18:50:35.931Z,98.30
2019-01-12T18:53:02.147Z,98.60
2019-01-12T18:55:25.391Z,99.00
2019-01-12T18:57:48.140Z,98.80
2019-01-12T19:00:18.635Z,98.90
2019-01-12T19:02:38.775Z,99.10
2019-01-12T19:05:01.880Z,99.20
2019-01-12T19:07:25.543Z,99.60
2019-01-12T19:09:49.544Z,99.40
2019-01-12T19:12:13.335Z,99.60
2019-01-12T19:14:35.892Z,99.80
2019-01-12T19:16:58.639Z,99.70
2019-01-12T19:19:22.442Z,99.60
2019-01-12T19:21:46.332Z,99.80
2019-01-12T19:24:09.699Z,99.80
2019-01-12T19:26:32.105Z,99.90
2019-01-12T19:28:54.356Z,99.90
2019-01-12T19:31:16.667Z,99.90
2019-01-12T19:33:39.239Z,99.90
2019-01-12T19:36:01.826Z,99.90
2019-01-12T19:38:25.738Z,99.90
2019-01-12T19:40:48.457Z,99.90
2019-01-12T19:43:10.755Z,99.90
2019-01-12T19:45:33.355Z,99.90
2019-01-12T19:47:55.865Z,99.90
2019-01-12T19:50:21.707Z,99.90
2019-01-12T19:52:44.029Z,99.90
2019-01-12T19:55:06.739Z,99.90
2019-01-12T19:57:31.336Z,99.90
2019-01-12T19:59:55.523Z,99.90
2019-01-12T20:02:18.175Z,99.90
2019-01-12T20:04:41.320Z,99.90
2019-01-12T20:07:04.414Z,99.90
2019-01-12T20:09:26.902Z,99.90
2019-01-12T20:11:49.189Z,99.90
2019-01-12T20:14:11.578Z,99.90
2019-01-12T20:16:35.079Z,99.90
2019-01-12T20:18:57.420Z,99.90
2019-01-12T20:21:19.757Z,99.90
2019-01-12T20:23:42.896Z,99.90
2019-01-12T20:26:05.171Z,99.90
2019-01-12T20:28:27.496Z,99.90
2019-01-12T20:33:20.981Z,99.90
2019-01-12T20:37:55.373Z,99.90
2019-01-12T20:40:30.155Z,99.90
2019-01-12T20:47:56.371Z,99.90
2019-01-12T20:50:27.560Z,99.90
2019-01-12T20:53:14.229Z,99.90
2019-01-12T20:55:46.139Z,99.90
2019-01-12T20:58:20.184Z,99.90
2019-01-12T21:00:54.683Z,99.90
2019-01-12T21:03:28.313Z,99.90
2019-01-12T21:06:14.407Z,99.90
2019-01-12T21:09:56.463Z,99.90
2019-01-12T21:12:31.823Z,99.90
2019-01-12T21:15:04.780Z,99.90
2019-01-12T21:17:27.788Z,99.90
2019-01-12T21:19:50.049Z,99.90
2019-01-12T21:22:12.412Z,99.90
2019-01-12T21:24:34.742Z,99.90
2019-01-12T21:26:57.659Z,99.90
2019-01-12T21:29:19.876Z,99.90
2019-01-12T21:31:42.171Z,99.90
2019-01-12T21:34:04.459Z,99.90
2019-01-12T21:36:28.049Z,99.90
2019-01-12T21:38:50.351Z,99.90
2019-01-12T21:41:12.666Z,99.90
2019-01-12T21:43:35.753Z,99.90
2019-01-12T21:45:58.821Z,99.90
2019-01-12T21:48:21.114Z,99.90
2019-01-12T21:50:43.428Z,99.90
2019-01-12T21:53:05.752Z,99.90
2019-01-12T21:55:28.036Z,99.90
2019-01-12T21:57:50.324Z,99.90
2019-01-12T22:00:14.612Z,99.90
2019-01-12T22:02:36.915Z,99.90
2019-01-12T22:04:59.245Z,99.90
2019-01-12T22:07:21.507Z,99.90
2019-01-12T22:09:43.746Z,99.90
2019-01-12T22:12:06.134Z,99.90
2019-01-12T22:14:28.460Z,99.90
2019-01-12T22:16:50.739Z,99.90
2019-01-12T22:19:13.031Z,99.90
2019-01-12T22:21:35.349Z,99.90
2019-01-12T22:23:57.629Z,99.90
2019-01-12T22:26:20.156Z,99.90
2019-01-12T22:28:42.449Z,99.90
2019-01-12T22:31:04.747Z,99.90
2019-01-12T22:33:27.075Z,99.90
2019-01-12T22:35:49.377Z,99.90
2019-01-12T22:38:11.690Z,99.90
2019-01-12T22:40:33.963Z,99.90
2019-01-12T22:42:56.300Z,99.90
2019-01-12T22:45:18.635Z,99.90
2019-01-12T22:47:40.975Z,99.90
2019-01-12T22:50:03.808Z,99.90
2019-01-12T22:52:26.119Z,99.90
2019-01-12T22:54:48.352Z,99.90
2019-01-12T22:57:10.675Z,99.90
2019-01-12T22:59:32.939Z,99.90
2019-01-12T23:02:00.642Z,99.90
2019-01-12T23:04:25.106Z,99.90
2019-01-12T23:06:47.404Z,99.90
2019-01-12T23:09:11.247Z,99.90
2019-01-12T23:11:33.397Z,99.90
2019-01-12T23:13:55.672Z,99.90
2019-01-12T23:16:18.012Z,99.90
2019-01-12T23:18:40.272Z,99.90
2019-01-12T23:21:02.580Z,99.90
2019-01-12T23:23:24.972Z,99.90
2019-01-12T23:25:47.251Z,99.90
2019-01-12T23:28:09.631Z,99.90
2019-01-12T23:30:31.927Z,99.90
2019-01-12T23:32:54.204Z,99.90
2019-01-12T23:35:16.432Z,99.90
2019-01-12T23:37:38.720Z,99.90
2019-01-12T23:40:01.042Z,99.90
2019-01-12T23:42:23.307Z,99.90
2019-01-12T23:44:45.651Z,99.90
2019-01-12T23:47:08.630Z,99.90
2019-01-12T23:49:30.911Z,99.90
2019-01-12T23:51:53.191Z,99.90
2019-01-12T23:54:15.447Z,99.90
2019-01-12T23:56:37.735Z,99.90
2019-01-12T23:59:00.026Z,99.90
